sensor_id;sensor_type;location;lat;lon;timestamp;temperature;humidity
8178;DHT22;4130;48.740;9.132;2023-04-15T00:00:16;2.20;99.90
8178;DHT22;4130;48.740;9.132;2023-04-15T00:02:43;2.20;99.90
8178;DHT22;4130;48.740;9.132;2023-04-15T00:05:11;2.20;99.90
8178;DHT22;4130;48.740;9.132;2023-04-15T00:07:38;2.10;99.90
8178;DHT22;4130;48.740;9.132;2023-04-15T00:10:06;2.10;99.90
8178;DHT22;4130;48.740;9.132;2023-04-15T00:12:33;2.10;99.90
8178;DHT22;4130;48.740;9.132;2023-04-15T00:15:00;2.00;99.90
8178;DHT22;4130;48.740;9.132;2023-04-15T00:17:27;2.00;99.90
8178;DHT22;4130;48.740;9.132;2023-04-15T00:19:53;2.00;99.90
8178;DHT22;4130;48.740;9.132;2023-04-15T00:22:21;2.00;99.90
8178;DHT22;4130;48.740;9.132;2023-04-15T00:24:49;2.00;99.90
8178;DHT22;4130;48.740;9.132;2023-04-15T00:27:15;2.00;99.90
8178;DHT22;4130;48.740;9.132;2023-04-15T00:29:42;1.90;99.90
8178;DHT22;4130;48.740;9.132;2023-04-15T00:32:09;2.00;99.90
8178;DHT22;4130;48.740;9.132;2023-04-15T00:34:36;2.00;99.90
8178;DHT22;4130;48.740;9.132;2023-04-15T00:37:02;1.90;99.90
8178;DHT22;4130;48.740;9.132;2023-04-15T00:39:30;1.90;99.90
8178;DHT22;4130;48.740;9.132;2023-04-15T00:41:57;1.80;99.90
8178;DHT22;4130;48.740;9.132;2023-04-15T00:44:24;1.90;99.90
8178;DHT22;4130;48.740;9.132;2023-04-15T00:46:51;1.80;99.90
8178;DHT22;4130;48.740;9.132;2023-04-15T00:49:18;1.80;99.90
8178;DHT22;4130;48.740;9.132;2023-04-15T00:51:45;1.80;99.90
8178;DHT22;4130;48.740;9.132;2023-04-15T00:54:12;1.80;99.90
8178;DHT22;4130;48.740;9.132;2023-04-15T00:56:40;1.80;99.90
8178;DHT22;4130;48.740;9.132;2023-04-15T00:59:08;1.80;99.90
8178;DHT22;4130;48.740;9.132;2023-04-15T01:01:35;1.80;99.90
8178;DHT22;4130;48.740;9.132;2023-04-15T01:04:03;1.80;99.90
8178;DHT22;4130;48.740;9.132;2023-04-15T01:06:30;1.70;99.90
8178;DHT22;4130;48.740;9.132;2023-04-15T01:08:58;1.70;99.90
8178;DHT22;4130;48.740;9.132;2023-04-15T01:11:26;1.70;99.90
8178;DHT22;4130;48.740;9.132;2023-04-15T01:13:55;1.60;99.90
8178;DHT22;4130;48.740;9.132;2023-04-15T01:16:22;1.60;99.90
8178;DHT22;4130;48.740;9.132;2023-04-15T01:18:49;1.60;99.90
8178;DHT22;4130;48.740;9.132;2023-04-15T01:21:17;1.60;99.90
8178;DHT22;4130;48.740;9.132;2023-04-15T01:23:46;1.50;99.90
8178;DHT22;4130;48.740;9.132;2023-04-15T01:26:14;1.50;99.90
8178;DHT22;4130;48.740;9.132;2023-04-15T01:28:41;1.50;99.90
8178;DHT22;4130;48.740;9.132;2023-04-15T01:31:09;1.50;99.90
8178;DHT22;4130;48.740;9.132;2023-04-15T01:33:37;1.40;99.90
8178;DHT22;4130;48.740;9.132;2023-04-15T01:36:05;1.50;99.90
8178;DHT22;4130;48.740;9.132;2023-04-15T01:38:33;1.40;99.90
8178;DHT22;4130;48.740;9.132;2023-04-15T01:41:00;1.40;99.90
8178;DHT22;4130;48.740;9.132;2023-04-15T01:43:29;1.40;99.90
8178;DHT22;4130;48.740;9.132;2023-04-15T01:45:55;1.40;99.90
8178;DHT22;4130;48.740;9.132;2023-04-15T01:48:22;1.40;99.90
8178;DHT22;4130;48.740;9.132;2023-04-15T01:50:49;1.30;99.90
8178;DHT22;4130;48.740;9.132;2023-04-15T01:53:16;1.40;99.90
8178;DHT22;4130;48.740;9.132;2023-04-15T01:55:43;1.40;99.90
8178;DHT22;4130;48.740;9.132;2023-04-15T01:58:10;1.40;99.90
8178;DHT22;4130;48.740;9.132;2023-04-15T02:00:38;1.30;99.90
8178;DHT22;4130;48.740;9.132;2023-04-15T02:03:04;1.30;99.90
8178;DHT22;4130;48.740;9.132;2023-04-15T02:05:31;1.30;99.90
8178;DHT22;4130;48.740;9.132;2023-04-15T02:07:58;1.30;99.90
8178;DHT22;4130;48.740;9.132;2023-04-15T02:10:25;1.30;99.90
8178;DHT22;4130;48.740;9.132;2023-04-15T02:12:52;1.40;99.90
8178;DHT22;4130;48.740;9.132;2023-04-15T02:15:19;1.30;99.90
8178;DHT22;4130;48.740;9.132;2023-04-15T02:17:47;1.30;99.90
8178;DHT22;4130;48.740;9.132;2023-04-15T02:20:15;1.30;99.90
8178;DHT22;4130;48.740;9.132;2023-04-15T02:22:42;1.30;99.90
8178;DHT22;4130;48.740;9.132;2023-04-15T02:25:09;1.20;99.90
8178;DHT22;4130;48.740;9.132;2023-04-15T02:27:36;1.20;99.90
8178;DHT22;4130;48.740;9.132;2023-04-15T02:30:03;1.20;99.90
8178;DHT22;4130;48.740;9.132;2023-04-15T02:32:30;1.20;99.90
8178;DHT22;4130;48.740;9.132;2023-04-15T02:35:01;1.20;99.90
8178;DHT22;4130;48.740;9.132;2023-04-15T02:37:28;1.10;99.90
8178;DHT22;4130;48.740;9.132;2023-04-15T02:39:56;1.10;99.90
8178;DHT22;4130;48.740;9.132;2023-04-15T02:42:23;1.10;99.90
8178;DHT22;4130;48.740;9.132;2023-04-15T02:44:52;1.10;99.90
8178;DHT22;4130;48.740;9.132;2023-04-15T02:47:19;1.10;99.90
8178;DHT22;4130;48.740;9.132;2023-04-15T02:49:46;1.00;99.90
8178;DHT22;4130;48.740;9.132;2023-04-15T02:52:14;1.00;99.90
8178;DHT22;4130;48.740;9.132;2023-04-15T02:54:40;1.00;99.90
8178;DHT22;4130;48.740;9.132;2023-04-15T02:57:07;1.00;99.90
8178;DHT22;4130;48.740;9.132;2023-04-15T02:59:36;1.00;99.90
8178;DHT22;4130;48.740;9.132;2023-04-15T03:02:03;1.00;99.90
8178;DHT22;4130;48.740;9.132;2023-04-15T03:04:32;1.00;99.90
8178;DHT22;4130;48.740;9.132;2023-04-15T03:06:59;0.90;99.90
8178;DHT22;4130;48.740;9.132;2023-04-15T03:09:27;0.90;99.90
8178;DHT22;4130;48.740;9.132;2023-04-15T03:11:54;0.90;99.90
8178;DHT22;4130;48.740;9.132;2023-04-15T03:14:21;0.80;99.90
8178;DHT22;4130;48.740;9.132;2023-04-15T03:16:48;0.80;99.90
8178;DHT22;4130;48.740;9.132;2023-04-15T03:19:15;0.80;99.90
8178;DHT22;4130;48.740;9.132;2023-04-15T03:21:42;0.80;99.90
8178;DHT22;4130;48.740;9.132;2023-04-15T03:24:08;0.80;99.90
8178;DHT22;4130;48.740;9.132;2023-04-15T03:26:36;0.80;99.90
8178;DHT22;4130;48.740;9.132;2023-04-15T03:29:04;0.80;99.90
8178;DHT22;4130;48.740;9.132;2023-04-15T03:31:30;0.80;99.90
8178;DHT22;4130;48.740;9.132;2023-04-15T03:33:57;0.80;99.90
8178;DHT22;4130;48.740;9.132;2023-04-15T03:36:24;0.80;99.90
8178;DHT22;4130;48.740;9.132;2023-04-15T03:38:51;0.80;99.90
8178;DHT22;4130;48.740;9.132;2023-04-15T03:41:18;0.80;99.90
8178;DHT22;4130;48.740;9.132;2023-04-15T03:43:46;0.80;99.90
8178;DHT22;4130;48.740;9.132;2023-04-15T03:46:13;0.80;99.90
8178;DHT22;4130;48.740;9.132;2023-04-15T03:48:40;0.80;99.90
8178;DHT22;4130;48.740;9.132;2023-04-15T03:51:06;0.80;99.90
8178;DHT22;4130;48.740;9.132;2023-04-15T03:53:33;0.90;99.90
8178;DHT22;4130;48.740;9.132;2023-04-15T03:56:00;0.90;99.90
8178;DHT22;4130;48.740;9.132;2023-04-15T03:58:27;0.90;99.90
8178;DHT22;4130;48.740;9.132;2023-04-15T04:00:55;0.90;99.90
8178;DHT22;4130;48.740;9.132;2023-04-15T04:03:21;0.80;99.90
8178;DHT22;4130;48.740;9.132;2023-04-15T04:05:48;0.80;99.90
8178;DHT22;4130;48.740;9.132;2023-04-15T04:08:15;0.80;99.90
8178;DHT22;4130;48.740;9.132;2023-04-15T04:10:43;0.70;99.90
8178;DHT22;4130;48.740;9.132;2023-04-15T04:13:10;0.70;99.90
8178;DHT22;4130;48.740;9.132;2023-04-15T04:15:37;0.70;99.90
8178;DHT22;4130;48.740;9.132;2023-04-15T04:18:05;0.70;99.90
8178;DHT22;4130;48.740;9.132;2023-04-15T04:20:32;0.70;99.90
8178;DHT22;4130;48.740;9.132;2023-04-15T04:22:59;0.70;99.90
8178;DHT22;4130;48.740;9.132;2023-04-15T04:25:26;0.70;99.90
8178;DHT22;4130;48.740;9.132;2023-04-15T04:27:52;0.70;99.90
8178;DHT22;4130;48.740;9.132;2023-04-15T04:30:19;0.70;99.90
8178;DHT22;4130;48.740;9.132;2023-04-15T04:32:46;0.70;99.90
8178;DHT22;4130;48.740;9.132;2023-04-15T04:35:16;0.60;99.90
8178;DHT22;4130;48.740;9.132;2023-04-15T04:37:43;0.60;99.90
8178;DHT22;4130;48.740;9.132;2023-04-15T04:40:10;0.60;99.90
8178;DHT22;4130;48.740;9.132;2023-04-15T04:42:37;0.60;99.90
8178;DHT22;4130;48.740;9.132;2023-04-15T04:45:05;0.60;99.90
8178;DHT22;4130;48.740;9.132;2023-04-15T04:47:31;0.60;99.90
8178;DHT22;4130;48.740;9.132;2023-04-15T04:49:58;0.60;99.90
8178;DHT22;4130;48.740;9.132;2023-04-15T04:52:26;0.60;99.90
8178;DHT22;4130;48.740;9.132;2023-04-15T04:54:53;0.60;99.90
8178;DHT22;4130;48.740;9.132;2023-04-15T04:57:20;0.60;99.90
8178;DHT22;4130;48.740;9.132;2023-04-15T04:59:47;0.60;99.90
8178;DHT22;4130;48.740;9.132;2023-04-15T05:02:13;0.70;99.90
8178;DHT22;4130;48.740;9.132;2023-04-15T05:04:40;0.50;99.90
8178;DHT22;4130;48.740;9.132;2023-04-15T05:07:07;0.60;99.90
8178;DHT22;4130;48.740;9.132;2023-04-15T05:09:35;0.60;99.90
8178;DHT22;4130;48.740;9.132;2023-04-15T05:12:03;0.70;99.90
8178;DHT22;4130;48.740;9.132;2023-04-15T05:14:29;0.70;99.90
8178;DHT22;4130;48.740;9.132;2023-04-15T05:16:56;0.70;99.90
8178;DHT22;4130;48.740;9.132;2023-04-15T05:19:23;0.80;99.90
8178;DHT22;4130;48.740;9.132;2023-04-15T05:21:50;0.80;99.90
8178;DHT22;4130;48.740;9.132;2023-04-15T05:24:16;0.80;99.90
8178;DHT22;4130;48.740;9.132;2023-04-15T05:26:45;0.80;99.90
8178;DHT22;4130;48.740;9.132;2023-04-15T05:29:12;0.80;99.90
8178;DHT22;4130;48.740;9.132;2023-04-15T05:31:38;0.90;99.90
8178;DHT22;4130;48.740;9.132;2023-04-15T05:34:05;0.90;99.90
8178;DHT22;4130;48.740;9.132;2023-04-15T05:36:32;0.90;99.90
8178;DHT22;4130;48.740;9.132;2023-04-15T05:38:59;1.00;99.90
8178;DHT22;4130;48.740;9.132;2023-04-15T05:41:26;1.00;99.90
8178;DHT22;4130;48.740;9.132;2023-04-15T05:43:54;1.10;99.90
8178;DHT22;4130;48.740;9.132;2023-04-15T05:46:21;1.20;99.90
8178;DHT22;4130;48.740;9.132;2023-04-15T05:48:47;1.30;99.90
8178;DHT22;4130;48.740;9.132;2023-04-15T05:51:14;1.40;99.90
8178;DHT22;4130;48.740;9.132;2023-04-15T05:53:41;1.60;99.90
8178;DHT22;4130;48.740;9.132;2023-04-15T05:56:07;1.80;99.90
8178;DHT22;4130;48.740;9.132;2023-04-15T05:58:34;1.90;99.90
8178;DHT22;4130;48.740;9.132;2023-04-15T06:01:03;2.10;99.90
8178;DHT22;4130;48.740;9.132;2023-04-15T06:03:30;2.20;99.90
8178;DHT22;4130;48.740;9.132;2023-04-15T06:05:56;2.30;99.90
8178;DHT22;4130;48.740;9.132;2023-04-15T06:08:23;2.40;99.90
8178;DHT22;4130;48.740;9.132;2023-04-15T06:10:50;2.60;99.90
8178;DHT22;4130;48.740;9.132;2023-04-15T06:13:17;2.70;99.90
8178;DHT22;4130;48.740;9.132;2023-04-15T06:15:43;2.80;99.90
8178;DHT22;4130;48.740;9.132;2023-04-15T06:18:11;3.00;99.90
8178;DHT22;4130;48.740;9.132;2023-04-15T06:20:38;3.10;99.90
8178;DHT22;4130;48.740;9.132;2023-04-15T06:23:06;3.30;99.90
8178;DHT22;4130;48.740;9.132;2023-04-15T06:25:32;3.40;99.90
8178;DHT22;4130;48.740;9.132;2023-04-15T06:27:59;3.60;99.90
8178;DHT22;4130;48.740;9.132;2023-04-15T06:30:26;3.70;99.90
8178;DHT22;4130;48.740;9.132;2023-04-15T06:32:54;3.90;99.90
8178;DHT22;4130;48.740;9.132;2023-04-15T06:35:22;4.10;99.90
8178;DHT22;4130;48.740;9.132;2023-04-15T06:37:48;4.40;99.90
8178;DHT22;4130;48.740;9.132;2023-04-15T06:40:16;4.60;99.90
8178;DHT22;4130;48.740;9.132;2023-04-15T06:42:42;4.90;99.90
8178;DHT22;4130;48.740;9.132;2023-04-15T06:45:10;5.10;99.90
8178;DHT22;4130;48.740;9.132;2023-04-15T06:47:37;5.40;99.90
8178;DHT22;4130;48.740;9.132;2023-04-15T06:50:04;5.60;99.90
8178;DHT22;4130;48.740;9.132;2023-04-15T06:52:32;5.90;99.90
8178;DHT22;4130;48.740;9.132;2023-04-15T06:55:00;6.20;99.90
8178;DHT22;4130;48.740;9.132;2023-04-15T06:57:27;6.40;99.90
8178;DHT22;4130;48.740;9.132;2023-04-15T06:59:54;6.70;99.90
8178;DHT22;4130;48.740;9.132;2023-04-15T07:02:21;7.00;99.90
8178;DHT22;4130;48.740;9.132;2023-04-15T07:04:48;7.10;99.90
8178;DHT22;4130;48.740;9.132;2023-04-15T07:07:15;7.30;99.90
8178;DHT22;4130;48.740;9.132;2023-04-15T07:09:43;7.40;99.90
8178;DHT22;4130;48.740;9.132;2023-04-15T07:12:10;7.50;99.90
8178;DHT22;4130;48.740;9.132;2023-04-15T07:14:37;7.60;99.90
8178;DHT22;4130;48.740;9.132;2023-04-15T07:17:04;7.70;99.90
8178;DHT22;4130;48.740;9.132;2023-04-15T07:19:31;7.80;99.90
8178;DHT22;4130;48.740;9.132;2023-04-15T07:21:57;7.90;99.90
8178;DHT22;4130;48.740;9.132;2023-04-15T07:24:24;8.00;99.90
8178;DHT22;4130;48.740;9.132;2023-04-15T07:26:53;8.20;99.90
8178;DHT22;4130;48.740;9.132;2023-04-15T07:29:20;8.30;99.90
8178;DHT22;4130;48.740;9.132;2023-04-15T07:31:47;8.50;99.90
8178;DHT22;4130;48.740;9.132;2023-04-15T07:34:14;8.70;99.90
8178;DHT22;4130;48.740;9.132;2023-04-15T07:36:41;8.90;99.90
8178;DHT22;4130;48.740;9.132;2023-04-15T07:39:08;9.20;99.90
8178;DHT22;4130;48.740;9.132;2023-04-15T07:41:34;9.50;99.90
8178;DHT22;4130;48.740;9.132;2023-04-15T07:44:03;9.80;99.90
8178;DHT22;4130;48.740;9.132;2023-04-15T07:46:29;10.00;99.90
8178;DHT22;4130;48.740;9.132;2023-04-15T07:48:56;10.30;99.90
8178;DHT22;4130;48.740;9.132;2023-04-15T07:51:23;10.40;99.90
8178;DHT22;4130;48.740;9.132;2023-04-15T07:53:50;10.60;99.90
8178;DHT22;4130;48.740;9.132;2023-04-15T07:56:17;10.80;99.90
8178;DHT22;4130;48.740;9.132;2023-04-15T07:58:44;10.80;99.90
8178;DHT22;4130;48.740;9.132;2023-04-15T08:01:12;10.80;99.90
8178;DHT22;4130;48.740;9.132;2023-04-15T08:03:38;10.80;99.90
8178;DHT22;4130;48.740;9.132;2023-04-15T08:06:05;10.80;99.90
8178;DHT22;4130;48.740;9.132;2023-04-15T08:08:32;10.70;99.90
8178;DHT22;4130;48.740;9.132;2023-04-15T08:10:59;10.70;99.90
8178;DHT22;4130;48.740;9.132;2023-04-15T08:13:26;10.70;99.90
8178;DHT22;4130;48.740;9.132;2023-04-15T08:16:15;10.80;99.90
8178;DHT22;4130;48.740;9.132;2023-04-15T08:18:43;10.90;99.90
8178;DHT22;4130;48.740;9.132;2023-04-15T08:21:10;11.10;99.90
8178;DHT22;4130;48.740;9.132;2023-04-15T08:23:37;11.20;99.90
8178;DHT22;4130;48.740;9.132;2023-04-15T08:26:04;11.40;99.90
8178;DHT22;4130;48.740;9.132;2023-04-15T08:28:31;11.60;99.90
8178;DHT22;4130;48.740;9.132;2023-04-15T08:30:57;11.80;99.90
8178;DHT22;4130;48.740;9.132;2023-04-15T08:33:26;12.00;99.90
8178;DHT22;4130;48.740;9.132;2023-04-15T08:35:53;12.10;99.90
8178;DHT22;4130;48.740;9.132;2023-04-15T08:38:20;12.10;99.90
8178;DHT22;4130;48.740;9.132;2023-04-15T08:40:47;12.30;99.90
8178;DHT22;4130;48.740;9.132;2023-04-15T08:43:20;12.30;99.90
8178;DHT22;4130;48.740;9.132;2023-04-15T08:45:47;12.20;99.90
8178;DHT22;4130;48.740;9.132;2023-04-15T08:48:16;12.30;99.90
8178;DHT22;4130;48.740;9.132;2023-04-15T08:50:45;12.80;99.90
8178;DHT22;4130;48.740;9.132;2023-04-15T08:53:12;13.40;99.90
8178;DHT22;4130;48.740;9.132;2023-04-15T08:55:42;13.90;99.90
8178;DHT22;4130;48.740;9.132;2023-04-15T08:58:11;14.40;99.90
8178;DHT22;4130;48.740;9.132;2023-04-15T09:00:38;14.50;99.90
8178;DHT22;4130;48.740;9.132;2023-04-15T09:03:06;14.60;99.90
8178;DHT22;4130;48.740;9.132;2023-04-15T09:05:34;15.00;99.90
8178;DHT22;4130;48.740;9.132;2023-04-15T09:08:03;15.50;99.90
8178;DHT22;4130;48.740;9.132;2023-04-15T09:10:31;16.10;99.90
8178;DHT22;4130;48.740;9.132;2023-04-15T09:12:58;16.40;99.40
8178;DHT22;4130;48.740;9.132;2023-04-15T09:15:25;16.60;96.90
8178;DHT22;4130;48.740;9.132;2023-04-15T09:17:54;16.10;96.80
8178;DHT22;4130;48.740;9.132;2023-04-15T09:20:20;15.80;97.40
8178;DHT22;4130;48.740;9.132;2023-04-15T09:22:48;15.70;97.40
8178;DHT22;4130;48.740;9.132;2023-04-15T09:25:30;16.00;97.50
8178;DHT22;4130;48.740;9.132;2023-04-15T09:27:58;16.30;95.90
8178;DHT22;4130;48.740;9.132;2023-04-15T09:30:27;16.30;95.10
8178;DHT22;4130;48.740;9.132;2023-04-15T09:32:56;16.40;96.20
8178;DHT22;4130;48.740;9.132;2023-04-15T09:35:25;15.90;95.30
8178;DHT22;4130;48.740;9.132;2023-04-15T09:37:53;16.10;94.50
8178;DHT22;4130;48.740;9.132;2023-04-15T09:40:35;16.10;94.20
8178;DHT22;4130;48.740;9.132;2023-04-15T09:43:02;15.80;94.60
8178;DHT22;4130;48.740;9.132;2023-04-15T09:45:30;16.10;93.70
8178;DHT22;4130;48.740;9.132;2023-04-15T09:47:58;16.00;93.10
8178;DHT22;4130;48.740;9.132;2023-04-15T09:50:27;16.10;93.30
8178;DHT22;4130;48.740;9.132;2023-04-15T09:52:55;15.70;92.80
8178;DHT22;4130;48.740;9.132;2023-04-15T09:55:22;15.80;93.30
8178;DHT22;4130;48.740;9.132;2023-04-15T09:57:50;15.80;93.00
8178;DHT22;4130;48.740;9.132;2023-04-15T10:00:16;15.90;92.60
8178;DHT22;4130;48.740;9.132;2023-04-15T10:02:44;16.00;92.70
8178;DHT22;4130;48.740;9.132;2023-04-15T10:05:14;15.90;91.20
8178;DHT22;4130;48.740;9.132;2023-04-15T10:07:42;15.80;91.90
8178;DHT22;4130;48.740;9.132;2023-04-15T10:10:10;15.80;92.70
8178;DHT22;4130;48.740;9.132;2023-04-15T10:12:40;15.80;92.10
8178;DHT22;4130;48.740;9.132;2023-04-15T10:15:14;15.70;91.90
8178;DHT22;4130;48.740;9.132;2023-04-15T10:17:43;15.60;90.70
8178;DHT22;4130;48.740;9.132;2023-04-15T10:20:12;15.50;90.90
8178;DHT22;4130;48.740;9.132;2023-04-15T10:22:43;15.30;89.80
8178;DHT22;4130;48.740;9.132;2023-04-15T10:25:19;15.20;90.30
8178;DHT22;4130;48.740;9.132;2023-04-15T10:27:47;15.10;90.30
8178;DHT22;4130;48.740;9.132;2023-04-15T10:30:15;15.30;91.50
8178;DHT22;4130;48.740;9.132;2023-04-15T10:32:44;15.40;91.20
8178;DHT22;4130;48.740;9.132;2023-04-15T10:35:13;15.30;90.80
8178;DHT22;4130;48.740;9.132;2023-04-15T10:37:40;15.10;91.60
8178;DHT22;4130;48.740;9.132;2023-04-15T10:40:26;15.00;91.70
8178;DHT22;4130;48.740;9.132;2023-04-15T10:42:56;14.80;91.90
8178;DHT22;4130;48.740;9.132;2023-04-15T10:45:26;14.90;92.00
8178;DHT22;4130;48.740;9.132;2023-04-15T10:47:57;15.00;92.30
8178;DHT22;4130;48.740;9.132;2023-04-15T10:50:25;15.10;92.10
8178;DHT22;4130;48.740;9.132;2023-04-15T10:52:55;15.30;92.40
8178;DHT22;4130;48.740;9.132;2023-04-15T10:55:23;15.60;92.00
8178;DHT22;4130;48.740;9.132;2023-04-15T10:57:52;15.60;91.30
8178;DHT22;4130;48.740;9.132;2023-04-15T11:00:23;15.60;90.80
8178;DHT22;4130;48.740;9.132;2023-04-15T11:02:54;15.50;91.10
8178;DHT22;4130;48.740;9.132;2023-04-15T11:05:22;15.30;91.80
8178;DHT22;4130;48.740;9.132;2023-04-15T11:08:10;15.10;91.90
8178;DHT22;4130;48.740;9.132;2023-04-15T11:10:52;15.10;91.40
8178;DHT22;4130;48.740;9.132;2023-04-15T11:13:26;14.60;90.80
8178;DHT22;4130;48.740;9.132;2023-04-15T11:15:58;14.20;92.00
8178;DHT22;4130;48.740;9.132;2023-04-15T11:18:29;14.00;92.40
8178;DHT22;4130;48.740;9.132;2023-04-15T11:20:58;13.60;91.70
8178;DHT22;4130;48.740;9.132;2023-04-15T11:23:30;13.40;92.80
8178;DHT22;4130;48.740;9.132;2023-04-15T11:25:58;13.30;93.00
8178;DHT22;4130;48.740;9.132;2023-04-15T11:28:26;13.30;92.60
8178;DHT22;4130;48.740;9.132;2023-04-15T11:30:53;13.50;91.90
8178;DHT22;4130;48.740;9.132;2023-04-15T11:33:21;13.90;91.80
8178;DHT22;4130;48.740;9.132;2023-04-15T11:35:50;14.30;90.70
8178;DHT22;4130;48.740;9.132;2023-04-15T11:38:18;14.90;92.30
8178;DHT22;4130;48.740;9.132;2023-04-15T11:40:45;15.50;91.30
8178;DHT22;4130;48.740;9.132;2023-04-15T11:43:13;15.70;91.40
8178;DHT22;4130;48.740;9.132;2023-04-15T11:45:48;15.60;89.90
8178;DHT22;4130;48.740;9.132;2023-04-15T11:48:16;15.50;90.30
8178;DHT22;4130;48.740;9.132;2023-04-15T11:50:43;15.30;91.20
8178;DHT22;4130;48.740;9.132;2023-04-15T11:53:12;15.10;91.60
8178;DHT22;4130;48.740;9.132;2023-04-15T11:55:44;15.00;91.00
8178;DHT22;4130;48.740;9.132;2023-04-15T11:58:13;14.80;90.00
8178;DHT22;4130;48.740;9.132;2023-04-15T12:00:47;14.90;89.70
8178;DHT22;4130;48.740;9.132;2023-04-15T12:03:16;14.70;88.50
8178;DHT22;4130;48.740;9.132;2023-04-15T12:06:07;14.80;90.10
8178;DHT22;4130;48.740;9.132;2023-04-15T12:08:59;14.80;89.40
8178;DHT22;4130;48.740;9.132;2023-04-15T12:11:32;15.00;90.60
8178;DHT22;4130;48.740;9.132;2023-04-15T12:14:03;15.10;90.10
8178;DHT22;4130;48.740;9.132;2023-04-15T12:16:32;15.60;90.40
8178;DHT22;4130;48.740;9.132;2023-04-15T12:19:04;16.20;89.70
8178;DHT22;4130;48.740;9.132;2023-04-15T12:21:33;16.50;90.80
8178;DHT22;4130;48.740;9.132;2023-04-15T12:24:03;16.60;90.30
8178;DHT22;4130;48.740;9.132;2023-04-15T12:26:33;16.60;89.00
8178;DHT22;4130;48.740;9.132;2023-04-15T12:29:00;16.20;87.70
8178;DHT22;4130;48.740;9.132;2023-04-15T12:31:27;16.30;89.30
8178;DHT22;4130;48.740;9.132;2023-04-15T12:33:55;16.30;88.60
8178;DHT22;4130;48.740;9.132;2023-04-15T12:36:22;16.10;89.30
8178;DHT22;4130;48.740;9.132;2023-04-15T12:38:49;16.10;88.00
8178;DHT22;4130;48.740;9.132;2023-04-15T12:41:17;15.90;89.00
8178;DHT22;4130;48.740;9.132;2023-04-15T12:43:45;15.60;90.60
8178;DHT22;4130;48.740;9.132;2023-04-15T12:46:12;15.20;90.50
8178;DHT22;4130;48.740;9.132;2023-04-15T12:48:40;14.80;91.40
8178;DHT22;4130;48.740;9.132;2023-04-15T12:51:06;14.80;92.30
8178;DHT22;4130;48.740;9.132;2023-04-15T12:53:33;14.70;92.50
8178;DHT22;4130;48.740;9.132;2023-04-15T12:56:00;14.60;92.90
8178;DHT22;4130;48.740;9.132;2023-04-15T12:58:28;14.50;92.90
8178;DHT22;4130;48.740;9.132;2023-04-15T13:00:55;14.50;93.30
8178;DHT22;4130;48.740;9.132;2023-04-15T13:03:22;14.40;93.50
8178;DHT22;4130;48.740;9.132;2023-04-15T13:05:49;14.20;94.60
8178;DHT22;4130;48.740;9.132;2023-04-15T13:08:16;14.10;95.10
8178;DHT22;4130;48.740;9.132;2023-04-15T13:10:42;14.00;94.40
8178;DHT22;4130;48.740;9.132;2023-04-15T13:13:09;13.90;94.60
8178;DHT22;4130;48.740;9.132;2023-04-15T13:15:37;14.00;94.10
8178;DHT22;4130;48.740;9.132;2023-04-15T13:18:06;14.00;92.90
8178;DHT22;4130;48.740;9.132;2023-04-15T13:20:33;13.90;92.70
8178;DHT22;4130;48.740;9.132;2023-04-15T13:22:59;14.10;93.70
8178;DHT22;4130;48.740;9.132;2023-04-15T13:25:26;14.20;93.40
8178;DHT22;4130;48.740;9.132;2023-04-15T13:27:53;14.10;92.90
8178;DHT22;4130;48.740;9.132;2023-04-15T13:30:20;13.80;93.00
8178;DHT22;4130;48.740;9.132;2023-04-15T13:32:48;13.80;93.10
8178;DHT22;4130;48.740;9.132;2023-04-15T13:35:15;13.80;92.50
8178;DHT22;4130;48.740;9.132;2023-04-15T13:37:41;13.60;92.30
8178;DHT22;4130;48.740;9.132;2023-04-15T13:40:09;13.40;91.90
8178;DHT22;4130;48.740;9.132;2023-04-15T13:42:36;13.30;92.60
8178;DHT22;4130;48.740;9.132;2023-04-15T13:45:03;13.30;92.90
8178;DHT22;4130;48.740;9.132;2023-04-15T13:47:30;13.40;91.20
8178;DHT22;4130;48.740;9.132;2023-04-15T13:49:58;13.30;90.80
8178;DHT22;4130;48.740;9.132;2023-04-15T13:52:25;13.20;91.20
8178;DHT22;4130;48.740;9.132;2023-04-15T13:54:52;13.40;91.00
8178;DHT22;4130;48.740;9.132;2023-04-15T13:57:18;13.40;90.50
8178;DHT22;4130;48.740;9.132;2023-04-15T13:59:45;13.60;90.60
8178;DHT22;4130;48.740;9.132;2023-04-15T14:02:12;13.60;89.40
8178;DHT22;4130;48.740;9.132;2023-04-15T14:04:39;13.80;89.20
8178;DHT22;4130;48.740;9.132;2023-04-15T14:07:07;13.80;88.40
8178;DHT22;4130;48.740;9.132;2023-04-15T14:09:34;13.70;88.00
8178;DHT22;4130;48.740;9.132;2023-04-15T14:12:01;13.50;87.70
8178;DHT22;4130;48.740;9.132;2023-04-15T14:14:28;13.40;88.40
8178;DHT22;4130;48.740;9.132;2023-04-15T14:16:55;13.20;88.40
8178;DHT22;4130;48.740;9.132;2023-04-15T14:19:23;12.90;89.80
8178;DHT22;4130;48.740;9.132;2023-04-15T14:21:49;12.70;88.50
8178;DHT22;4130;48.740;9.132;2023-04-15T14:24:17;12.40;87.80
8178;DHT22;4130;48.740;9.132;2023-04-15T14:26:44;12.30;86.50
8178;DHT22;4130;48.740;9.132;2023-04-15T14:29:11;12.20;85.70
8178;DHT22;4130;48.740;9.132;2023-04-15T14:31:38;12.10;84.10
8178;DHT22;4130;48.740;9.132;2023-04-15T14:34:04;12.10;83.90
8178;DHT22;4130;48.740;9.132;2023-04-15T14:36:31;12.00;84.20
8178;DHT22;4130;48.740;9.132;2023-04-15T14:38:58;12.00;83.70
8178;DHT22;4130;48.740;9.132;2023-04-15T14:41:26;11.90;83.60
8178;DHT22;4130;48.740;9.132;2023-04-15T14:43:54;11.90;85.00
8178;DHT22;4130;48.740;9.132;2023-04-15T14:46:21;11.90;86.40
8178;DHT22;4130;48.740;9.132;2023-04-15T14:48:48;12.00;86.10
8178;DHT22;4130;48.740;9.132;2023-04-15T14:51:15;11.80;85.90
8178;DHT22;4130;48.740;9.132;2023-04-15T14:53:42;11.70;85.90
8178;DHT22;4130;48.740;9.132;2023-04-15T14:56:08;11.60;87.20
8178;DHT22;4130;48.740;9.132;2023-04-15T14:58:36;11.50;86.90
8178;DHT22;4130;48.740;9.132;2023-04-15T15:01:04;11.40;89.00
8178;DHT22;4130;48.740;9.132;2023-04-15T15:03:30;11.30;89.70
8178;DHT22;4130;48.740;9.132;2023-04-15T15:05:57;11.10;88.20
8178;DHT22;4130;48.740;9.132;2023-04-15T15:08:24;11.00;89.50
8178;DHT22;4130;48.740;9.132;2023-04-15T15:10:52;10.80;90.00
8178;DHT22;4130;48.740;9.132;2023-04-15T15:13:19;10.90;90.20
8178;DHT22;4130;48.740;9.132;2023-04-15T15:15:47;10.90;91.20
8178;DHT22;4130;48.740;9.132;2023-04-15T15:18:14;10.70;90.80
8178;DHT22;4130;48.740;9.132;2023-04-15T15:20:43;10.70;91.10
8178;DHT22;4130;48.740;9.132;2023-04-15T15:23:11;10.70;91.30
8178;DHT22;4130;48.740;9.132;2023-04-15T15:25:38;10.50;91.70
8178;DHT22;4130;48.740;9.132;2023-04-15T15:28:06;10.40;91.60
8178;DHT22;4130;48.740;9.132;2023-04-15T15:30:33;10.40;92.10
8178;DHT22;4130;48.740;9.132;2023-04-15T15:33:02;10.40;92.00
8178;DHT22;4130;48.740;9.132;2023-04-15T15:35:28;10.30;92.10
8178;DHT22;4130;48.740;9.132;2023-04-15T15:37:55;10.30;92.30
8178;DHT22;4130;48.740;9.132;2023-04-15T15:40:22;10.30;92.40
8178;DHT22;4130;48.740;9.132;2023-04-15T15:42:49;10.10;92.60
8178;DHT22;4130;48.740;9.132;2023-04-15T15:45:16;10.00;94.00
8178;DHT22;4130;48.740;9.132;2023-04-15T15:47:43;9.80;96.30
8178;DHT22;4130;48.740;9.132;2023-04-15T15:50:12;9.60;95.60
8178;DHT22;4130;48.740;9.132;2023-04-15T15:52:39;9.40;95.60
8178;DHT22;4130;48.740;9.132;2023-04-15T15:55:07;9.30;95.90
8178;DHT22;4130;48.740;9.132;2023-04-15T15:57:34;9.40;95.40
8178;DHT22;4130;48.740;9.132;2023-04-15T16:00:01;9.40;96.50
8178;DHT22;4130;48.740;9.132;2023-04-15T16:02:28;9.50;95.50
8178;DHT22;4130;48.740;9.132;2023-04-15T16:04:56;9.50;95.60
8178;DHT22;4130;48.740;9.132;2023-04-15T16:07:24;9.60;95.50
8178;DHT22;4130;48.740;9.132;2023-04-15T16:09:51;9.70;95.80
8178;DHT22;4130;48.740;9.132;2023-04-15T16:12:18;9.60;95.20